sensor_id;sensor_type;location;lat;lon;timestamp;P1;durP1;ratioP1;P2;durP2;ratioP2
5987;SDS011;3021;51.000;6.980;2022-08-02T00:01:22;1.50;;;1.40;;
5987;SDS011;3021;51.000;6.980;2022-08-02T00:03:48;2.83;;;1.00;;
5987;SDS011;3021;51.000;6.980;2022-08-02T00:06:13;2.78;;;1.05;;
5987;SDS011;3021;51.000;6.980;2022-08-02T00:08:38;1.30;;;1.20;;
5987;SDS011;3021;51.000;6.980;2022-08-02T00:11:04;1.13;;;1.08;;
5987;SDS011;3021;51.000;6.980;2022-08-02T00:13:29;2.13;;;1.15;;
5987;SDS011;3021;51.000;6.980;2022-08-02T00:15:55;1.73;;;1.30;;
5987;SDS011;3021;51.000;6.980;2022-08-02T00:18:20;1.30;;;1.20;;
5987;SDS011;3021;51.000;6.980;2022-08-02T00:20:46;1.20;;;1.10;;
5987;SDS011;3021;51.000;6.980;2022-08-02T00:23:11;1.75;;;1.17;;
5987;SDS011;3021;51.000;6.980;2022-08-02T00:25:36;1.42;;;1.33;;
5987;SDS011;3021;51.000;6.980;2022-08-02T00:28:02;1.30;;;1.20;;
5987;SDS011;3021;51.000;6.980;2022-08-02T00:30:27;1.40;;;1.30;;
5987;SDS011;3021;51.000;6.980;2022-08-02T00:32:53;1.55;;;1.30;;
5987;SDS011;3021;51.000;6.980;2022-08-02T00:35:18;1.20;;;1.10;;
5987;SDS011;3021;51.000;6.980;2022-08-02T00:37:44;1.30;;;1.20;;
5987;SDS011;3021;51.000;6.980;2022-08-02T00:40:09;2.03;;;1.25;;
5987;SDS011;3021;51.000;6.980;2022-08-02T00:42:37;1.40;;;1.20;;
5987;SDS011;3021;51.000;6.980;2022-08-02T00:45:03;1.80;;;1.20;;
5987;SDS011;3021;51.000;6.980;2022-08-02T00:47:29;1.00;;;1.00;;
5987;SDS011;3021;51.000;6.980;2022-08-02T00:49:54;2.17;;;1.13;;
5987;SDS011;3021;51.000;6.980;2022-08-02T00:52:21;2.40;;;1.10;;
5987;SDS011;3021;51.000;6.980;2022-08-02T00:54:47;1.35;;;1.05;;
5987;SDS011;3021;51.000;6.980;2022-08-02T00:57:13;2.00;;;1.30;;
5987;SDS011;3021;51.000;6.980;2022-08-02T00:59:38;1.35;;;1.25;;
5987;SDS011;3021;51.000;6.980;2022-08-02T01:02:05;2.08;;;1.20;;
5987;SDS011;3021;51.000;6.980;2022-08-02T01:04:31;2.40;;;1.30;;
5987;SDS011;3021;51.000;6.980;2022-08-02T01:06:57;1.25;;;1.15;;
5987;SDS011;3021;51.000;6.980;2022-08-02T01:09:24;1.38;;;1.10;;
5987;SDS011;3021;51.000;6.980;2022-08-02T01:11:49;1.52;;;1.42;;
5987;SDS011;3021;51.000;6.980;2022-08-02T01:14:15;2.83;;;1.40;;
5987;SDS011;3021;51.000;6.980;2022-08-02T01:16:49;1.33;;;1.23;;
5987;SDS011;3021;51.000;6.980;2022-08-02T01:19:38;1.48;;;1.38;;
5987;SDS011;3021;51.000;6.980;2022-08-02T01:30:49;1.38;;;1.27;;
5987;SDS011;3021;51.000;6.980;2022-08-02T01:33:22;1.67;;;1.20;;
5987;SDS011;3021;51.000;6.980;2022-08-02T01:35:51;1.30;;;1.20;;
5987;SDS011;3021;51.000;6.980;2022-08-02T01:38:29;1.40;;;1.30;;
5987;SDS011;3021;51.000;6.980;2022-08-02T01:40:58;1.58;;;1.40;;
5987;SDS011;3021;51.000;6.980;2022-08-02T01:43:27;1.88;;;1.20;;
5987;SDS011;3021;51.000;6.980;2022-08-02T01:45:54;1.15;;;1.10;;
5987;SDS011;3021;51.000;6.980;2022-08-02T01:48:21;1.75;;;1.30;;
5987;SDS011;3021;51.000;6.980;2022-08-02T01:50:48;1.50;;;1.40;;
5987;SDS011;3021;51.000;6.980;2022-08-02T01:53:15;1.40;;;1.30;;
5987;SDS011;3021;51.000;6.980;2022-08-02T01:55:50;2.33;;;1.50;;
5987;SDS011;3021;51.000;6.980;2022-08-02T01:58:18;1.92;;;1.30;;
5987;SDS011;3021;51.000;6.980;2022-08-02T02:00:49;2.97;;;1.40;;
5987;SDS011;3021;51.000;6.980;2022-08-02T02:03:18;1.98;;;1.67;;
5987;SDS011;3021;51.000;6.980;2022-08-02T02:05:46;1.27;;;1.17;;
5987;SDS011;3021;51.000;6.980;2022-08-02T02:08:14;2.65;;;1.30;;
5987;SDS011;3021;51.000;6.980;2022-08-02T02:10:42;1.45;;;1.35;;
5987;SDS011;3021;51.000;6.980;2022-08-02T02:13:13;1.60;;;1.50;;
5987;SDS011;3021;51.000;6.980;2022-08-02T02:15:43;1.58;;;1.35;;
5987;SDS011;3021;51.000;6.980;2022-08-02T02:18:11;2.97;;;1.20;;
5987;SDS011;3021;51.000;6.980;2022-08-02T02:20:41;1.23;;;1.13;;
5987;SDS011;3021;51.000;6.980;2022-08-02T02:23:07;1.30;;;1.20;;
5987;SDS011;3021;51.000;6.980;2022-08-02T02:25:32;1.20;;;1.20;;
5987;SDS011;3021;51.000;6.980;2022-08-02T02:28:00;1.52;;;1.30;;
5987;SDS011;3021;51.000;6.980;2022-08-02T02:30:28;1.42;;;1.33;;
5987;SDS011;3021;51.000;6.980;2022-08-02T02:32:57;1.65;;;1.40;;
5987;SDS011;3021;51.000;6.980;2022-08-02T02:35:29;1.40;;;1.23;;
5987;SDS011;3021;51.000;6.980;2022-08-02T02:37:58;1.50;;;1.40;;
5987;SDS011;3021;51.000;6.980;2022-08-02T02:40:26;1.92;;;1.20;;
5987;SDS011;3021;51.000;6.980;2022-08-02T02:42:53;1.60;;;1.50;;
5987;SDS011;3021;51.000;6.980;2022-08-02T02:45:20;1.40;;;1.30;;
5987;SDS011;3021;51.000;6.980;2022-08-02T02:47:46;2.78;;;1.60;;
5987;SDS011;3021;51.000;6.980;2022-08-02T02:50:13;2.00;;;1.45;;
5987;SDS011;3021;51.000;6.980;2022-08-02T02:52:41;1.67;;;1.58;;
5987;SDS011;3021;51.000;6.980;2022-08-02T02:55:08;1.80;;;1.67;;
5987;SDS011;3021;51.000;6.980;2022-08-02T02:57:35;2.58;;;2.38;;
5987;SDS011;3021;51.000;6.980;2022-08-02T03:00:02;2.80;;;2.58;;
5987;SDS011;3021;51.000;6.980;2022-08-02T03:02:30;3.17;;;2.85;;
5987;SDS011;3021;51.000;6.980;2022-08-02T03:04:56;2.10;;;2.00;;
5987;SDS011;3021;51.000;6.980;2022-08-02T03:07:26;2.10;;;2.00;;
5987;SDS011;3021;51.000;6.980;2022-08-02T03:09:52;2.15;;;1.95;;
5987;SDS011;3021;51.000;6.980;2022-08-02T03:12:18;2.00;;;1.90;;
5987;SDS011;3021;51.000;6.980;2022-08-02T03:14:43;2.10;;;1.90;;
5987;SDS011;3021;51.000;6.980;2022-08-02T03:17:09;2.22;;;1.90;;
5987;SDS011;3021;51.000;6.980;2022-08-02T03:19:35;3.55;;;2.10;;
5987;SDS011;3021;51.000;6.980;2022-08-02T03:22:00;2.13;;;2.00;;
5987;SDS011;3021;51.000;6.980;2022-08-02T03:24:25;1.88;;;1.77;;
5987;SDS011;3021;51.000;6.980;2022-08-02T03:26:51;1.65;;;1.55;;
5987;SDS011;3021;51.000;6.980;2022-08-02T03:29:16;2.05;;;1.75;;
5987;SDS011;3021;51.000;6.980;2022-08-02T03:31:42;1.70;;;1.60;;
5987;SDS011;3021;51.000;6.980;2022-08-02T03:34:10;2.22;;;2.10;;
5987;SDS011;3021;51.000;6.980;2022-08-02T03:36:36;2.47;;;2.08;;
5987;SDS011;3021;51.000;6.980;2022-08-02T03:39:04;2.20;;;2.00;;
5987;SDS011;3021;51.000;6.980;2022-08-02T03:41:31;2.15;;;1.63;;
5987;SDS011;3021;51.000;6.980;2022-08-02T03:43:58;1.88;;;1.77;;
5987;SDS011;3021;51.000;6.980;2022-08-02T03:46:24;1.90;;;1.80;;
5987;SDS011;3021;51.000;6.980;2022-08-02T03:48:50;2.00;;;1.90;;
5987;SDS011;3021;51.000;6.980;2022-08-02T03:51:17;1.80;;;1.70;;
5987;SDS011;3021;51.000;6.980;2022-08-02T03:53:44;2.03;;;1.80;;
5987;SDS011;3021;51.000;6.980;2022-08-02T03:56:10;2.55;;;1.90;;
5987;SDS011;3021;51.000;6.980;2022-08-02T03:58:36;3.30;;;1.88;;
5987;SDS011;3021;51.000;6.980;2022-08-02T04:01:01;1.90;;;1.80;;
5987;SDS011;3021;51.000;6.980;2022-08-02T04:03:27;3.65;;;1.95;;
5987;SDS011;3021;51.000;6.980;2022-08-02T04:05:52;4.55;;;2.10;;
5987;SDS011;3021;51.000;6.980;2022-08-02T04:08:18;2.42;;;2.13;;
5987;SDS011;3021;51.000;6.980;2022-08-02T04:10:44;2.03;;;1.92;;
5987;SDS011;3021;51.000;6.980;2022-08-02T04:13:31;2.23;;;2.03;;
5987;SDS011;3021;51.000;6.980;2022-08-02T04:16:02;1.98;;;1.88;;
5987;SDS011;3021;51.000;6.980;2022-08-02T04:18:55;2.92;;;1.90;;
5987;SDS011;3021;51.000;6.980;2022-08-02T04:21:23;2.30;;;2.20;;
5987;SDS011;3021;51.000;6.980;2022-08-02T04:23:51;2.33;;;2.13;;
5987;SDS011;3021;51.000;6.980;2022-08-02T04:26:18;2.53;;;2.20;;
5987;SDS011;3021;51.000;6.980;2022-08-02T04:28:44;2.13;;;2.03;;
5987;SDS011;3021;51.000;6.980;2022-08-02T04:31:10;4.53;;;2.17;;
5987;SDS011;3021;51.000;6.980;2022-08-02T04:33:36;2.20;;;1.95;;
5987;SDS011;3021;51.000;6.980;2022-08-02T04:36:03;2.20;;;2.10;;
5987;SDS011;3021;51.000;6.980;2022-08-02T04:38:30;2.63;;;2.13;;
5987;SDS011;3021;51.000;6.980;2022-08-02T04:40:55;2.17;;;1.95;;
5987;SDS011;3021;51.000;6.980;2022-08-02T04:43:21;1.90;;;1.80;;
5987;SDS011;3021;51.000;6.980;2022-08-02T04:45:51;2.50;;;2.30;;
5987;SDS011;3021;51.000;6.980;2022-08-02T04:48:18;2.13;;;1.95;;
5987;SDS011;3021;51.000;6.980;2022-08-02T04:50:44;2.10;;;2.00;;
5987;SDS011;3021;51.000;6.980;2022-08-02T04:53:09;2.28;;;2.10;;
5987;SDS011;3021;51.000;6.980;2022-08-02T04:55:35;1.90;;;1.80;;
5987;SDS011;3021;51.000;6.980;2022-08-02T04:58:00;2.30;;;2.10;;
5987;SDS011;3021;51.000;6.980;2022-08-02T05:00:26;2.60;;;1.90;;
5987;SDS011;3021;51.000;6.980;2022-08-02T05:02:52;2.20;;;2.00;;
5987;SDS011;3021;51.000;6.980;2022-08-02T05:05:20;3.45;;;2.25;;
5987;SDS011;3021;51.000;6.980;2022-08-02T05:07:45;2.15;;;2.00;;
5987;SDS011;3021;51.000;6.980;2022-08-02T05:10:11;2.03;;;1.90;;
5987;SDS011;3021;51.000;6.980;2022-08-02T05:12:36;3.90;;;2.30;;
5987;SDS011;3021;51.000;6.980;2022-08-02T05:15:02;2.53;;;2.30;;
5987;SDS011;3021;51.000;6.980;2022-08-02T05:17:28;2.75;;;2.40;;
5987;SDS011;3021;51.000;6.980;2022-08-02T05:19:54;2.65;;;2.20;;
5987;SDS011;3021;51.000;6.980;2022-08-02T05:22:19;2.45;;;2.25;;
5987;SDS011;3021;51.000;6.980;2022-08-02T05:24:44;2.00;;;1.90;;
5987;SDS011;3021;51.000;6.980;2022-08-02T05:27:10;1.75;;;1.65;;
5987;SDS011;3021;51.000;6.980;2022-08-02T05:29:35;2.13;;;2.03;;
5987;SDS011;3021;51.000;6.980;2022-08-02T05:32:00;3.83;;;1.65;;
5987;SDS011;3021;51.000;6.980;2022-08-02T05:34:26;1.35;;;1.25;;
5987;SDS011;3021;51.000;6.980;2022-08-02T05:36:51;1.55;;;1.30;;
5987;SDS011;3021;51.000;6.980;2022-08-02T05:39:16;2.03;;;1.13;;
5987;SDS011;3021;51.000;6.980;2022-08-02T05:41:42;2.50;;;1.60;;
5987;SDS011;3021;51.000;6.980;2022-08-02T05:44:07;1.40;;;1.30;;
5987;SDS011;3021;51.000;6.980;2022-08-02T05:46:33;1.38;;;1.27;;
5987;SDS011;3021;51.000;6.980;2022-08-02T05:48:58;1.60;;;1.50;;
5987;SDS011;3021;51.000;6.980;2022-08-02T05:51:35;2.30;;;1.20;;
5987;SDS011;3021;51.000;6.980;2022-08-02T05:54:08;1.40;;;1.30;;
5987;SDS011;3021;51.000;6.980;2022-08-02T06:02:15;1.55;;;1.40;;
5987;SDS011;3021;51.000;6.980;2022-08-02T06:05:11;1.75;;;1.55;;
5987;SDS011;3021;51.000;6.980;2022-08-02T06:07:42;1.90;;;1.60;;
5987;SDS011;3021;51.000;6.980;2022-08-02T06:10:08;1.63;;;1.52;;
5987;SDS011;3021;51.000;6.980;2022-08-02T06:12:41;3.20;;;1.67;;
5987;SDS011;3021;51.000;6.980;2022-08-02T06:15:27;3.38;;;1.77;;
5987;SDS011;3021;51.000;6.980;2022-08-02T06:17:53;1.88;;;1.77;;
5987;SDS011;3021;51.000;6.980;2022-08-02T06:20:18;2.45;;;1.98;;
5987;SDS011;3021;51.000;6.980;2022-08-02T06:22:45;2.25;;;1.48;;
5987;SDS011;3021;51.000;6.980;2022-08-02T06:25:10;2.92;;;1.48;;
5987;SDS011;3021;51.000;6.980;2022-08-02T06:27:37;2.35;;;1.63;;
5987;SDS011;3021;51.000;6.980;2022-08-02T06:30:04;1.70;;;1.60;;
5987;SDS011;3021;51.000;6.980;2022-08-02T06:32:31;3.58;;;1.60;;
5987;SDS011;3021;51.000;6.980;2022-08-02T06:35:00;2.10;;;1.40;;
5987;SDS011;3021;51.000;6.980;2022-08-02T06:43:04;1.30;;;1.20;;
5987;SDS011;3021;51.000;6.980;2022-08-02T06:45:31;1.30;;;1.17;;
5987;SDS011;3021;51.000;6.980;2022-08-02T06:47:58;2.60;;;1.20;;
5987;SDS011;3021;51.000;6.980;2022-08-02T06:50:23;2.47;;;1.75;;
5987;SDS011;3021;51.000;6.980;2022-08-02T06:52:49;3.70;;;1.35;;
5987;SDS011;3021;51.000;6.980;2022-08-02T06:55:14;4.65;;;3.50;;
5987;SDS011;3021;51.000;6.980;2022-08-02T06:57:39;2.38;;;2.28;;
5987;SDS011;3021;51.000;6.980;2022-08-02T07:00:05;2.10;;;0.90;;
5987;SDS011;3021;51.000;6.980;2022-08-02T07:02:36;1.40;;;1.30;;
5987;SDS011;3021;51.000;6.980;2022-08-02T07:05:04;2.17;;;1.42;;
5987;SDS011;3021;51.000;6.980;2022-08-02T07:07:30;1.65;;;1.38;;
5987;SDS011;3021;51.000;6.980;2022-08-02T07:09:57;1.75;;;1.40;;
5987;SDS011;3021;51.000;6.980;2022-08-02T07:12:23;6.53;;;3.97;;
5987;SDS011;3021;51.000;6.980;2022-08-02T07:14:49;4.63;;;2.38;;
5987;SDS011;3021;51.000;6.980;2022-08-02T07:17:14;4.57;;;1.50;;
5987;SDS011;3021;51.000;6.980;2022-08-02T07:19:40;5.80;;;3.28;;
5987;SDS011;3021;51.000;6.980;2022-08-02T07:22:05;1.63;;;1.02;;
5987;SDS011;3021;51.000;6.980;2022-08-02T07:24:30;2.22;;;1.55;;
5987;SDS011;3021;51.000;6.980;2022-08-02T07:26:56;2.25;;;1.25;;
5987;SDS011;3021;51.000;6.980;2022-08-02T07:29:22;1.52;;;1.20;;
5987;SDS011;3021;51.000;6.980;2022-08-02T07:31:48;3.15;;;1.13;;
5987;SDS011;3021;51.000;6.980;2022-08-02T07:34:13;3.22;;;1.33;;
5987;SDS011;3021;51.000;6.980;2022-08-02T07:36:39;2.05;;;1.02;;
5987;SDS011;3021;51.000;6.980;2022-08-02T07:39:04;1.10;;;1.00;;
5987;SDS011;3021;51.000;6.980;2022-08-02T07:41:30;2.92;;;2.25;;
5987;SDS011;3021;51.000;6.980;2022-08-02T07:43:55;2.65;;;1.20;;
5987;SDS011;3021;51.000;6.980;2022-08-02T07:46:20;2.15;;;1.40;;
5987;SDS011;3021;51.000;6.980;2022-08-02T07:48:46;5.80;;;2.47;;
5987;SDS011;3021;51.000;6.980;2022-08-02T07:51:17;1.75;;;1.30;;
5987;SDS011;3021;51.000;6.980;2022-08-02T07:53:43;2.28;;;1.42;;
5987;SDS011;3021;51.000;6.980;2022-08-02T07:56:08;1.70;;;1.13;;
5987;SDS011;3021;51.000;6.980;2022-08-02T07:58:33;4.43;;;1.30;;
5987;SDS011;3021;51.000;6.980;2022-08-02T08:00:59;1.13;;;1.00;;
5987;SDS011;3021;51.000;6.980;2022-08-02T08:03:24;1.73;;;1.00;;
5987;SDS011;3021;51.000;6.980;2022-08-02T08:05:50;2.83;;;1.20;;
5987;SDS011;3021;51.000;6.980;2022-08-02T08:08:18;3.17;;;1.25;;
5987;SDS011;3021;51.000;6.980;2022-08-02T08:10:43;5.35;;;2.05;;
5987;SDS011;3021;51.000;6.980;2022-08-02T08:13:09;2.47;;;1.92;;
5987;SDS011;3021;51.000;6.980;2022-08-02T08:15:34;3.67;;;1.65;;
5987;SDS011;3021;51.000;6.980;2022-08-02T08:17:59;1.35;;;1.00;;
5987;SDS011;3021;51.000;6.980;2022-08-02T08:20:25;7.90;;;3.13;;
5987;SDS011;3021;51.000;6.980;2022-08-02T08:22:50;0.80;;;0.80;;
5987;SDS011;3021;51.000;6.980;2022-08-02T08:25:17;1.30;;;0.95;;
5987;SDS011;3021;51.000;6.980;2022-08-02T08:27:51;1.52;;;0.80;;
5987;SDS011;3021;51.000;6.980;2022-08-02T08:30:17;1.05;;;0.70;;
5987;SDS011;3021;51.000;6.980;2022-08-02T08:32:44;2.00;;;1.00;;
5987;SDS011;3021;51.000;6.980;2022-08-02T08:35:10;1.80;;;1.00;;
5987;SDS011;3021;51.000;6.980;2022-08-02T08:37:36;3.00;;;0.90;;
5987;SDS011;3021;51.000;6.980;2022-08-02T08:40:03;2.60;;;1.33;;
5987;SDS011;3021;51.000;6.980;2022-08-02T08:42:30;1.80;;;0.90;;
5987;SDS011;3021;51.000;6.980;2022-08-02T08:44:55;1.13;;;1.02;;
5987;SDS011;3021;51.000;6.980;2022-08-02T08:47:21;2.55;;;1.23;;
5987;SDS011;3021;51.000;6.980;2022-08-02T08:49:49;2.28;;;0.95;;
5987;SDS011;3021;51.000;6.980;2022-08-02T08:52:18;3.50;;;2.05;;
5987;SDS011;3021;51.000;6.980;2022-08-02T08:54:46;1.73;;;1.10;;
5987;SDS011;3021;51.000;6.980;2022-08-02T08:57:13;3.65;;;2.03;;
5987;SDS011;3021;51.000;6.980;2022-08-02T08:59:40;3.17;;;1.33;;
5987;SDS011;3021;51.000;6.980;2022-08-02T09:02:05;4.32;;;2.08;;
5987;SDS011;3021;51.000;6.980;2022-08-02T09:04:31;1.42;;;0.90;;
5987;SDS011;3021;51.000;6.980;2022-08-02T09:06:57;1.27;;;0.98;;
5987;SDS011;3021;51.000;6.980;2022-08-02T09:09:22;2.22;;;0.70;;
5987;SDS011;3021;51.000;6.980;2022-08-02T09:11:48;1.30;;;0.80;;
5987;SDS011;3021;51.000;6.980;2022-08-02T09:14:24;2.30;;;1.30;;
5987;SDS011;3021;51.000;6.980;2022-08-02T09:16:51;1.73;;;0.80;;
5987;SDS011;3021;51.000;6.980;2022-08-02T09:19:24;2.65;;;2.38;;
5987;SDS011;3021;51.000;6.980;2022-08-02T09:22:00;2.33;;;0.85;;
5987;SDS011;3021;51.000;6.980;2022-08-02T09:24:39;4.88;;;0.95;;
5987;SDS011;3021;51.000;6.980;2022-08-02T09:27:11;1.02;;;0.63;;
5987;SDS011;3021;51.000;6.980;2022-08-02T09:29:38;3.20;;;0.85;;
5987;SDS011;3021;51.000;6.980;2022-08-02T09:32:03;1.48;;;0.90;;
5987;SDS011;3021;51.000;6.980;2022-08-02T09:34:45;3.88;;;0.88;;
5987;SDS011;3021;51.000;6.980;2022-08-02T09:37:22;0.90;;;0.70;;
5987;SDS011;3021;51.000;6.980;2022-08-02T09:39:48;1.60;;;0.70;;
5987;SDS011;3021;51.000;6.980;2022-08-02T09:42:13;1.02;;;0.80;;
5987;SDS011;3021;51.000;6.980;2022-08-02T09:44:39;1.50;;;0.73;;
5987;SDS011;3021;51.000;6.980;2022-08-02T09:47:12;3.65;;;1.00;;
5987;SDS011;3021;51.000;6.980;2022-08-02T09:49:44;2.80;;;1.00;;
5987;SDS011;3021;51.000;6.980;2022-08-02T09:52:10;1.20;;;0.93;;
5987;SDS011;3021;51.000;6.980;2022-08-02T09:54:36;3.22;;;0.70;;
5987;SDS011;3021;51.000;6.980;2022-08-02T09:57:03;2.33;;;0.90;;
5987;SDS011;3021;51.000;6.980;2022-08-02T09:59:29;2.20;;;0.90;;
5987;SDS011;3021;51.000;6.980;2022-08-02T10:01:55;2.53;;;0.60;;
5987;SDS011;3021;51.000;6.980;2022-08-02T10:04:23;2.67;;;0.52;;
5987;SDS011;3021;51.000;6.980;2022-08-02T10:06:50;1.40;;;0.52;;
5987;SDS011;3021;51.000;6.980;2022-08-02T10:09:16;1.25;;;0.63;;
5987;SDS011;3021;51.000;6.980;2022-08-02T10:11:42;1.27;;;0.60;;
5987;SDS011;3021;51.000;6.980;2022-08-02T10:14:08;1.60;;;0.50;;
5987;SDS011;3021;51.000;6.980;2022-08-02T10:16:36;0.30;;;0.30;;
5987;SDS011;3021;51.000;6.980;2022-08-02T10:19:03;1.15;;;0.70;;
5987;SDS011;3021;51.000;6.980;2022-08-02T10:21:36;2.88;;;0.70;;
5987;SDS011;3021;51.000;6.980;2022-08-02T10:24:37;0.88;;;0.57;;
5987;SDS011;3021;51.000;6.980;2022-08-02T10:27:03;2.05;;;0.65;;
5987;SDS011;3021;51.000;6.980;2022-08-02T10:29:36;0.40;;;0.40;;
5987;SDS011;3021;51.000;6.980;2022-08-02T10:32:07;2.13;;;0.50;;
5987;SDS011;3021;51.000;6.980;2022-08-02T10:34:46;1.60;;;0.60;;
5987;SDS011;3021;51.000;6.980;2022-08-02T10:37:17;1.40;;;0.52;;
5987;SDS011;3021;51.000;6.980;2022-08-02T10:39:43;2.08;;;0.60;;
5987;SDS011;3021;51.000;6.980;2022-08-02T10:42:10;0.77;;;0.60;;
5987;SDS011;3021;51.000;6.980;2022-08-02T10:44:37;0.82;;;0.50;;
5987;SDS011;3021;51.000;6.980;2022-08-02T10:49:53;1.15;;;0.73;;
5987;SDS011;3021;51.000;6.980;2022-08-02T10:52:29;0.90;;;0.45;;
5987;SDS011;3021;51.000;6.980;2022-08-02T10:57:23;1.05;;;0.40;;
5987;SDS011;3021;51.000;6.980;2022-08-02T11:02:43;1.58;;;0.40;;
5987;SDS011;3021;51.000;6.980;2022-08-02T11:10:44;0.90;;;0.40;;
5987;SDS011;3021;51.000;6.980;2022-08-02T11:13:15;2.45;;;0.40;;
5987;SDS011;3021;51.000;6.980;2022-08-02T11:21:25;0.52;;;0.50;;
5987;SDS011;3021;51.000;6.980;2022-08-02T11:23:52;0.82;;;0.50;;
5987;SDS011;3021;51.000;6.980;2022-08-02T11:28:53;1.60;;;0.60;;
5987;SDS011;3021;51.000;6.980;2022-08-02T11:31:19;0.68;;;0.45;;
5987;SDS011;3021;51.000;6.980;2022-08-02T11:33:47;3.72;;;0.60;;
5987;SDS011;3021;51.000;6.980;2022-08-02T11:36:14;1.02;;;0.60;;
5987;SDS011;3021;51.000;6.980;2022-08-02T11:38:40;0.63;;;0.63;;
5987;SDS011;3021;51.000;6.980;2022-08-02T11:41:06;1.08;;;0.60;;
5987;SDS011;3021;51.000;6.980;2022-08-02T11:43:31;0.50;;;0.50;;
5987;SDS011;3021;51.000;6.980;2022-08-02T11:46:00;0.57;;;0.55;;
5987;SDS011;3021;51.000;6.980;2022-08-02T11:51:11;0.40;;;0.32;;
5987;SDS011;3021;51.000;6.980;2022-08-02T11:56:15;1.00;;;0.60;;
5987;SDS011;3021;51.000;6.980;2022-08-02T11:58:59;1.10;;;0.60;;
5987;SDS011;3021;51.000;6.980;2022-08-02T12:01:32;1.27;;;0.50;;
5987;SDS011;3021;51.000;6.980;2022-08-02T12:03:59;0.60;;;0.60;;
5987;SDS011;3021;51.000;6.980;2022-08-02T12:06:26;0.82;;;0.40;;
5987;SDS011;3021;51.000;6.980;2022-08-02T12:11:30;1.92;;;0.55;;
5987;SDS011;3021;51.000;6.980;2022-08-02T12:13:57;0.88;;;0.70;;
5987;SDS011;3021;51.000;6.980;2022-08-02T12:16:23;1.70;;;0.95;;
5987;SDS011;3021;51.000;6.980;2022-08-02T12:21:42;2.40;;;0.60;;
5987;SDS011;3021;51.000;6.980;2022-08-02T12:24:08;0.52;;;0.52;;
5987;SDS011;3021;51.000;6.980;2022-08-02T12:26:44;0.35;;;0.35;;
5987;SDS011;3021;51.000;6.980;2022-08-02T12:29:11;1.13;;;0.70;;
5987;SDS011;3021;51.000;6.980;2022-08-02T12:31:37;0.80;;;0.63;;
5987;SDS011;3021;51.000;6.980;2022-08-02T12:34:10;0.93;;;0.57;;
5987;SDS011;3021;51.000;6.980;2022-08-02T12:39:04;0.75;;;0.50;;
5987;SDS011;3021;51.000;6.980;2022-08-02T12:41:37;0.63;;;0.60;;
5987;SDS011;3021;51.000;6.980;2022-08-02T12:44:02;1.73;;;0.50;;
5987;SDS011;3021;51.000;6.980;2022-08-02T12:46:28;1.20;;;0.65;;
5987;SDS011;3021;51.000;6.980;2022-08-02T12:48:55;0.73;;;0.52;;
5987;SDS011;3021;51.000;6.980;2022-08-02T12:51:28;1.58;;;0.57;;
5987;SDS011;3021;51.000;6.980;2022-08-02T13:02:04;0.98;;;0.55;;
5987;SDS011;3021;51.000;6.980;2022-08-02T13:04:31;0.82;;;0.40;;
5987;SDS011;3021;51.000;6.980;2022-08-02T13:06:57;1.05;;;0.60;;
5987;SDS011;3021;51.000;6.980;2022-08-02T13:09:23;0.50;;;0.47;;
5987;SDS011;3021;51.000;6.980;2022-08-02T13:11:48;2.08;;;0.63;;
5987;SDS011;3021;51.000;6.980;2022-08-02T13:14:14;0.70;;;0.50;;
5987;SDS011;3021;51.000;6.980;2022-08-02T13:16:40;2.78;;;0.70;;
5987;SDS011;3021;51.000;6.980;2022-08-02T13:19:07;0.80;;;0.60;;
5987;SDS011;3021;51.000;6.980;2022-08-02T13:21:33;1.70;;;0.55;;
5987;SDS011;3021;51.000;6.980;2022-08-02T13:23:59;2.33;;;0.73;;
5987;SDS011;3021;51.000;6.980;2022-08-02T13:26:24;1.10;;;0.50;;
5987;SDS011;3021;51.000;6.980;2022-08-02T13:28:50;0.70;;;0.47;;
5987;SDS011;3021;51.000;6.980;2022-08-02T13:31:16;1.58;;;0.70;;
5987;SDS011;3021;51.000;6.980;2022-08-02T13:33:41;0.75;;;0.70;;
5987;SDS011;3021;51.000;6.980;2022-08-02T13:36:06;1.48;;;0.80;;
5987;SDS011;3021;51.000;6.980;2022-08-02T13:38:32;0.57;;;0.57;;
5987;SDS011;3021;51.000;6.980;2022-08-02T13:40:57;3.17;;;0.60;;
5987;SDS011;3021;51.000;6.980;2022-08-02T13:43:49;0.43;;;0.40;;
5987;SDS011;3021;51.000;6.980;2022-08-02T13:46:14;2.67;;;0.70;;
5987;SDS011;3021;51.000;6.980;2022-08-02T13:48:40;0.47;;;0.47;;
5987;SDS011;3021;51.000;6.980;2022-08-02T13:51:05;0.43;;;0.43;;
5987;SDS011;3021;51.000;6.980;2022-08-02T13:53:35;0.40;;;0.40;;
5987;SDS011;3021;51.000;6.980;2022-08-02T13:56:02;1.63;;;0.70;;
5987;SDS011;3021;51.000;6.980;2022-08-02T13:58:28;0.70;;;0.50;;
5987;SDS011;3021;51.000;6.980;2022-08-02T14:00:53;0.75;;;0.68;;
5987;SDS011;3021;51.000;6.980;2022-08-02T14:03:18;1.55;;;0.50;;
5987;SDS011;3021;51.000;6.980;2022-08-02T14:05:44;3.10;;;0.60;;
5987;SDS011;3021;51.000;6.980;2022-08-02T14:08:09;1.52;;;0.52;;
5987;SDS011;3021;51.000;6.980;2022-08-02T14:10:34;1.55;;;0.60;;
5987;SDS011;3021;51.000;6.980;2022-08-02T14:13:00;0.68;;;0.68;;
5987;SDS011;3021;51.000;6.980;2022-08-02T14:15:25;0.40;;;0.40;;
5987;SDS011;3021;51.000;6.980;2022-08-02T14:17:51;1.50;;;1.05;;
5987;SDS011;3021;51.000;6.980;2022-08-02T14:20:16;2.42;;;0.43;;
5987;SDS011;3021;51.000;6.980;2022-08-02T14:22:41;1.23;;;0.70;;
5987;SDS011;3021;51.000;6.980;2022-08-02T14:25:07;0.40;;;0.40;;
5987;SDS011;3021;51.000;6.980;2022-08-02T14:27:33;1.00;;;0.50;;
5987;SDS011;3021;51.000;6.980;2022-08-02T14:29:58;1.88;;;0.50;;
5987;SDS011;3021;51.000;6.980;2022-08-02T14:32:23;0.55;;;0.50;;
5987;SDS011;3021;51.000;6.980;2022-08-02T14:34:50;0.55;;;0.55;;
5987;SDS011;3021;51.000;6.980;2022-08-02T14:37:15;2.00;;;0.80;;
5987;SDS011;3021;51.000;6.980;2022-08-02T14:39:41;1.92;;;0.63;;
5987;SDS011;3021;51.000;6.980;2022-08-02T14:42:06;2.25;;;0.60;;
5987;SDS011;3021;51.000;6.980;2022-08-02T14:44:32;2.67;;;0.63;;
5987;SDS011;3021;51.000;6.980;2022-08-02T14:46:58;1.52;;;0.90;;
5987;SDS011;3021;51.000;6.980;2022-08-02T14:49:23;1.23;;;0.50;;
5987;SDS011;3021;51.000;6.980;2022-08-02T14:51:49;1.40;;;0.70;;
5987;SDS011;3021;51.000;6.980;2022-08-02T14:54:14;3.25;;;0.68;;
5987;SDS011;3021;51.000;6.980;2022-08-02T14:56:40;1.25;;;0.60;;
5987;SDS011;3021;51.000;6.980;2022-08-02T14:59:05;2.75;;;1.08;;
5987;SDS011;3021;51.000;6.980;2022-08-02T15:01:30;1.10;;;0.60;;
5987;SDS011;3021;51.000;6.980;2022-08-02T15:03:56;0.73;;;0.60;;
5987;SDS011;3021;51.000;6.980;2022-08-02T15:06:22;1.40;;;0.60;;
5987;SDS011;3021;51.000;6.980;2022-08-02T15:08:47;0.90;;;0.60;;
5987;SDS011;3021;51.000;6.980;2022-08-02T15:11:15;1.20;;;0.63;;
5987;SDS011;3021;51.000;6.980;2022-08-02T15:13:41;1.95;;;0.70;;
5987;SDS011;3021;51.000;6.980;2022-08-02T15:16:07;3.00;;;0.82;;
5987;SDS011;3021;51.000;6.980;2022-08-02T15:18:33;2.25;;;0.80;;
5987;SDS011;3021;51.000;6.980;2022-08-02T15:20:58;1.15;;;0.60;;
5987;SDS011;3021;51.000;6.980;2022-08-02T15:23:23;0.50;;;0.50;;
5987;SDS011;3021;51.000;6.980;2022-08-02T15:25:49;0.65;;;0.45;;
5987;SDS011;3021;51.000;6.980;2022-08-02T15:28:15;1.67;;;0.80;;
5987;SDS011;3021;51.000;6.980;2022-08-02T15:30:41;0.80;;;0.50;;
5987;SDS011;3021;51.000;6.980;2022-08-02T15:33:06;5.95;;;0.68;;
5987;SDS011;3021;51.000;6.980;2022-08-02T15:35:32;1.40;;;0.65;;
5987;SDS011;3021;51.000;6.980;2022-08-02T15:37:57;1.88;;;0.52;;
5987;SDS011;3021;51.000;6.980;2022-08-02T15:40:23;2.25;;;0.70;;
5987;SDS011;3021;51.000;6.980;2022-08-02T15:42:49;0.93;;;0.50;;
5987;SDS011;3021;51.000;6.980;2022-08-02T15:45:14;3.03;;;0.60;;
5987;SDS011;3021;51.000;6.980;2022-08-02T15:47:40;1.70;;;1.00;;
5987;SDS011;3021;51.000;6.980;2022-08-02T15:50:06;1.70;;;0.57;;
5987;SDS011;3021;51.000;6.980;2022-08-02T15:52:31;1.27;;;0.75;;
5987;SDS011;3021;51.000;6.980;2022-08-02T15:54:56;0.63;;;0.60;;
5987;SDS011;3021;51.000;6.980;2022-08-02T15:57:22;0.80;;;0.57;;
5987;SDS011;3021;51.000;6.980;2022-08-02T15:59:48;3.50;;;0.70;;
5987;SDS011;3021;51.000;6.980;2022-08-02T16:02:13;2.10;;;0.68;;
5987;SDS011;3021;51.000;6.980;2022-08-02T16:04:39;2.17;;;0.68;;
5987;SDS011;3021;51.000;6.980;2022-08-02T16:07:05;3.22;;;0.80;;
5987;SDS011;3021;51.000;6.980;2022-08-02T16:09:31;1.30;;;0.70;;
5987;SDS011;3021;51.000;6.980;2022-08-02T16:11:56;0.40;;;0.40;;
5987;SDS011;3021;51.000;6.980;2022-08-02T16:14:21;1.42;;;0.70;;
5987;SDS011;3021;51.000;6.980;2022-08-02T16:16:47;1.00;;;0.70;;
5987;SDS011;3021;51.000;6.980;2022-08-02T16:19:12;0.50;;;0.50;;